sensor_id;sensor_type;location;lat;lon;timestamp;temperature;humidity
29173;DHT22;16223;47.966;-1.616;2022-08-04T00:00:16;18.5;92
29173;DHT22;16223;47.966;-1.616;2022-08-04T00:01:22;18.5;92
29173;DHT22;16223;47.966;-1.616;2022-08-04T00:02:22;18.5;92
29173;DHT22;16223;47.966;-1.616;2022-08-04T00:03:21;18.5;92
29173;DHT22;16223;47.966;-1.616;2022-08-04T00:04:20;18.5;92
29173;DHT22;16223;47.966;-1.616;2022-08-04T00:05:28;18.5;92
29173;DHT22;16223;47.966;-1.616;2022-08-04T00:06:23;18.5;92
29173;DHT22;16223;47.966;-1.616;2022-08-04T00:07:18;18.5;92
29173;DHT22;16223;47.966;-1.616;2022-08-04T00:08:24;18.5;92
29173;DHT22;16223;47.966;-1.616;2022-08-04T00:09:24;18.5;92
29173;DHT22;16223;47.966;-1.616;2022-08-04T00:10:17;18.5;92
29173;DHT22;16223;47.966;-1.616;2022-08-04T00:11:19;18.5;92
29173;DHT22;16223;47.966;-1.616;2022-08-04T00:12:17;18.5;92
29173;DHT22;16223;47.966;-1.616;2022-08-04T00:13:16;18.5;92
29173;DHT22;16223;47.966;-1.616;2022-08-04T00:14:16;18.5;92
29173;DHT22;16223;47.966;-1.616;2022-08-04T00:15:20;18.5;92
29173;DHT22;16223;47.966;-1.616;2022-08-04T00:16:15;18.5;92
29173;DHT22;16223;47.966;-1.616;2022-08-04T00:17:16;18.5;92
29173;DHT22;16223;47.966;-1.616;2022-08-04T00:18:16;18.5;92
29173;DHT22;16223;47.966;-1.616;2022-08-04T00:19:31;18.5;92
29173;DHT22;16223;47.966;-1.616;2022-08-04T00:20:18;18.5;92
29173;DHT22;16223;47.966;-1.616;2022-08-04T00:21:17;18.5;92
29173;DHT22;16223;47.966;-1.616;2022-08-04T00:22:20;18.5;92
29173;DHT22;16223;47.966;-1.616;2022-08-04T00:23:16;18.5;92
29173;DHT22;16223;47.966;-1.616;2022-08-04T00:24:16;18.5;92
29173;DHT22;16223;47.966;-1.616;2022-08-04T00:25:16;18.5;92
29173;DHT22;16223;47.966;-1.616;2022-08-04T00:26:16;18.5;92
29173;DHT22;16223;47.966;-1.616;2022-08-04T00:27:16;18.5;92
29173;DHT22;16223;47.966;-1.616;2022-08-04T00:28:15;18.5;92
29173;DHT22;16223;47.966;-1.616;2022-08-04T00:29:15;18.5;92
29173;DHT22;16223;47.966;-1.616;2022-08-04T00:30:15;18.5;92
29173;DHT22;16223;47.966;-1.616;2022-08-04T00:31:16;18.5;92
29173;DHT22;16223;47.966;-1.616;2022-08-04T00:32:15;18.5;92
29173;DHT22;16223;47.966;-1.616;2022-08-04T00:33:20;18.5;92
29173;DHT22;16223;47.966;-1.616;2022-08-04T00:34:16;18.7;93
29173;DHT22;16223;47.966;-1.616;2022-08-04T00:35:16;18.7;93
29173;DHT22;16223;47.966;-1.616;2022-08-04T00:36:15;18.7;93
29173;DHT22;16223;47.966;-1.616;2022-08-04T00:37:16;18.7;93
29173;DHT22;16223;47.966;-1.616;2022-08-04T00:38:17;18.7;93
29173;DHT22;16223;47.966;-1.616;2022-08-04T00:39:17;18.7;93
29173;DHT22;16223;47.966;-1.616;2022-08-04T00:40:24;18.7;93
29173;DHT22;16223;47.966;-1.616;2022-08-04T00:41:21;18.7;93
29173;DHT22;16223;47.966;-1.616;2022-08-04T00:42:31;18.7;93
29173;DHT22;16223;47.966;-1.616;2022-08-04T00:43:23;18.7;93
29173;DHT22;16223;47.966;-1.616;2022-08-04T00:44:24;18.7;93
29173;DHT22;16223;47.966;-1.616;2022-08-04T00:46:34;18.7;93
29173;DHT22;16223;47.966;-1.616;2022-08-04T00:47:25;18.7;93
29173;DHT22;16223;47.966;-1.616;2022-08-04T00:48:24;18.7;93
29173;DHT22;16223;47.966;-1.616;2022-08-04T00:49:32;18.7;93
29173;DHT22;16223;47.966;-1.616;2022-08-04T00:50:23;18.7;93
29173;DHT22;16223;47.966;-1.616;2022-08-04T00:51:25;18.7;93
29173;DHT22;16223;47.966;-1.616;2022-08-04T00:52:25;18.7;93
29173;DHT22;16223;47.966;-1.616;2022-08-04T00:53:22;18.7;93
29173;DHT22;16223;47.966;-1.616;2022-08-04T00:54:23;18.7;93
29173;DHT22;16223;47.966;-1.616;2022-08-04T00:56:32;18.7;93
29173;DHT22;16223;47.966;-1.616;2022-08-04T00:57:29;18.7;93
29173;DHT22;16223;47.966;-1.616;2022-08-04T00:59:01;18.7;93
29173;DHT22;16223;47.966;-1.616;2022-08-04T00:59:24;18.7;93
29173;DHT22;16223;47.966;-1.616;2022-08-04T01:00:17;18.7;93
29173;DHT22;16223;47.966;-1.616;2022-08-04T01:01:27;18.7;93
29173;DHT22;16223;47.966;-1.616;2022-08-04T01:02:23;18.7;93
29173;DHT22;16223;47.966;-1.616;2022-08-04T01:03:21;18.7;93
29173;DHT22;16223;47.966;-1.616;2022-08-04T01:04:21;18.7;93
29173;DHT22;16223;47.966;-1.616;2022-08-04T01:05:25;18.7;93
29173;DHT22;16223;47.966;-1.616;2022-08-04T01:06:23;18.7;93
29173;DHT22;16223;47.966;-1.616;2022-08-04T01:07:29;18.7;93
29173;DHT22;16223;47.966;-1.616;2022-08-04T01:08:33;18.7;93
29173;DHT22;16223;47.966;-1.616;2022-08-04T01:09:26;18.7;93
29173;DHT22;16223;47.966;-1.616;2022-08-04T01:10:23;18.7;93
29173;DHT22;16223;47.966;-1.616;2022-08-04T01:11:25;18.7;93
29173;DHT22;16223;47.966;-1.616;2022-08-04T01:12:31;18.7;93
29173;DHT22;16223;47.966;-1.616;2022-08-04T01:13:31;18.7;93
29173;DHT22;16223;47.966;-1.616;2022-08-04T01:14:28;18.7;93
29173;DHT22;16223;47.966;-1.616;2022-08-04T01:15:21;18.7;93
29173;DHT22;16223;47.966;-1.616;2022-08-04T01:16:18;18.7;93
29173;DHT22;16223;47.966;-1.616;2022-08-04T01:17:23;18.7;93
29173;DHT22;16223;47.966;-1.616;2022-08-04T01:18:26;18.7;93
29173;DHT22;16223;47.966;-1.616;2022-08-04T01:20:20;18.7;93
29173;DHT22;16223;47.966;-1.616;2022-08-04T01:21:52;18.7;93
29173;DHT22;16223;47.966;-1.616;2022-08-04T01:22:32;18.7;93
29173;DHT22;16223;47.966;-1.616;2022-08-04T01:23:49;18.7;93
29173;DHT22;16223;47.966;-1.616;2022-08-04T01:25:02;18.7;93
29173;DHT22;16223;47.966;-1.616;2022-08-04T01:27:33;18.8;93
29173;DHT22;16223;47.966;-1.616;2022-08-04T01:28:35;18.8;93
29173;DHT22;16223;47.966;-1.616;2022-08-04T01:29:25;18.8;93
29173;DHT22;16223;47.966;-1.616;2022-08-04T01:30:25;18.8;93
29173;DHT22;16223;47.966;-1.616;2022-08-04T01:31:33;18.8;93
29173;DHT22;16223;47.966;-1.616;2022-08-04T01:32:30;18.8;93
29173;DHT22;16223;47.966;-1.616;2022-08-04T01:33:25;18.8;93
29173;DHT22;16223;47.966;-1.616;2022-08-04T01:34:26;18.8;93
29173;DHT22;16223;47.966;-1.616;2022-08-04T01:35:27;18.8;93
29173;DHT22;16223;47.966;-1.616;2022-08-04T01:36:26;18.8;93
29173;DHT22;16223;47.966;-1.616;2022-08-04T01:37:44;18.8;93
29173;DHT22;16223;47.966;-1.616;2022-08-04T01:38:27;18.8;93
29173;DHT22;16223;47.966;-1.616;2022-08-04T01:39:27;18.8;93
29173;DHT22;16223;47.966;-1.616;2022-08-04T01:40:25;18.8;93
29173;DHT22;16223;47.966;-1.616;2022-08-04T01:41:26;18.8;93
29173;DHT22;16223;47.966;-1.616;2022-08-04T01:42:25;18.8;93
29173;DHT22;16223;47.966;-1.616;2022-08-04T01:43:25;18.8;93
29173;DHT22;16223;47.966;-1.616;2022-08-04T01:44:26;18.8;93
29173;DHT22;16223;47.966;-1.616;2022-08-04T01:45:25;18.8;93
29173;DHT22;16223;47.966;-1.616;2022-08-04T01:46:25;18.8;93
29173;DHT22;16223;47.966;-1.616;2022-08-04T01:47:27;18.8;93
29173;DHT22;16223;47.966;-1.616;2022-08-04T01:48:26;18.8;93
29173;DHT22;16223;47.966;-1.616;2022-08-04T01:49:27;18.8;93
29173;DHT22;16223;47.966;-1.616;2022-08-04T01:50:25;18.8;93
29173;DHT22;16223;47.966;-1.616;2022-08-04T01:51:26;18.8;93
29173;DHT22;16223;47.966;-1.616;2022-08-04T01:52:25;18.8;93
29173;DHT22;16223;47.966;-1.616;2022-08-04T01:53:28;18.8;93
29173;DHT22;16223;47.966;-1.616;2022-08-04T01:54:24;18.8;93
29173;DHT22;16223;47.966;-1.616;2022-08-04T01:55:24;18.8;93
29173;DHT22;16223;47.966;-1.616;2022-08-04T01:56:26;18.8;93
29173;DHT22;16223;47.966;-1.616;2022-08-04T01:57:24;18.8;93
29173;DHT22;16223;47.966;-1.616;2022-08-04T01:58:24;18.8;93
29173;DHT22;16223;47.966;-1.616;2022-08-04T01:59:24;18.8;93
29173;DHT22;16223;47.966;-1.616;2022-08-04T02:00:25;18.8;93
29173;DHT22;16223;47.966;-1.616;2022-08-04T02:01:23;18.8;93
29173;DHT22;16223;47.966;-1.616;2022-08-04T02:02:24;18.8;93
29173;DHT22;16223;47.966;-1.616;2022-08-04T02:03:24;18.8;93
29173;DHT22;16223;47.966;-1.616;2022-08-04T02:04:24;18.8;93
29173;DHT22;16223;47.966;-1.616;2022-08-04T02:05:25;18.8;93
29173;DHT22;16223;47.966;-1.616;2022-08-04T02:06:31;18.8;93
29173;DHT22;16223;47.966;-1.616;2022-08-04T02:08:08;18.8;93
29173;DHT22;16223;47.966;-1.616;2022-08-04T02:09:32;18.8;93
29173;DHT22;16223;47.966;-1.616;2022-08-04T02:10:29;18.8;93
29173;DHT22;16223;47.966;-1.616;2022-08-04T02:11:24;18.8;93
29173;DHT22;16223;47.966;-1.616;2022-08-04T02:12:31;18.8;93
29173;DHT22;16223;47.966;-1.616;2022-08-04T02:13:30;18.8;93
29173;DHT22;16223;47.966;-1.616;2022-08-04T02:14:28;18.8;93
29173;DHT22;16223;47.966;-1.616;2022-08-04T02:15:30;18.8;93
29173;DHT22;16223;47.966;-1.616;2022-08-04T02:16:32;18.8;93
29173;DHT22;16223;47.966;-1.616;2022-08-04T02:17:28;18.8;93
29173;DHT22;16223;47.966;-1.616;2022-08-04T02:18:26;18.8;93
29173;DHT22;16223;47.966;-1.616;2022-08-04T02:19:34;18.8;93
29173;DHT22;16223;47.966;-1.616;2022-08-04T02:20:28;18.8;93
29173;DHT22;16223;47.966;-1.616;2022-08-04T02:21:27;18.8;93
29173;DHT22;16223;47.966;-1.616;2022-08-04T02:22:27;18.8;93
29173;DHT22;16223;47.966;-1.616;2022-08-04T02:23:34;18.8;93
29173;DHT22;16223;47.966;-1.616;2022-08-04T02:24:27;18.8;93
29173;DHT22;16223;47.966;-1.616;2022-08-04T02:25:27;18.8;93
29173;DHT22;16223;47.966;-1.616;2022-08-04T02:26:28;18.8;93
29173;DHT22;16223;47.966;-1.616;2022-08-04T02:27:31;18.2;94
29173;DHT22;16223;47.966;-1.616;2022-08-04T02:28:32;18.2;94
29173;DHT22;16223;47.966;-1.616;2022-08-04T02:29:33;18.1;94
29173;DHT22;16223;47.966;-1.616;2022-08-04T02:30:29;18.1;94
29173;DHT22;16223;47.966;-1.616;2022-08-04T02:31:30;18.1;94
29173;DHT22;16223;47.966;-1.616;2022-08-04T02:32:27;18.1;94
29173;DHT22;16223;47.966;-1.616;2022-08-04T02:33:29;18.1;94
29173;DHT22;16223;47.966;-1.616;2022-08-04T02:34:27;18.1;94
29173;DHT22;16223;47.966;-1.616;2022-08-04T02:35:26;18.1;94
29173;DHT22;16223;47.966;-1.616;2022-08-04T02:36:30;18.1;94
29173;DHT22;16223;47.966;-1.616;2022-08-04T02:37:24;18.1;94
29173;DHT22;16223;47.966;-1.616;2022-08-04T02:38:32;18.1;94
29173;DHT22;16223;47.966;-1.616;2022-08-04T02:39:25;18.1;94
29173;DHT22;16223;47.966;-1.616;2022-08-04T02:40:25;18.1;94
29173;DHT22;16223;47.966;-1.616;2022-08-04T02:41:27;18.1;94
29173;DHT22;16223;47.966;-1.616;2022-08-04T02:42:23;18.1;94
29173;DHT22;16223;47.966;-1.616;2022-08-04T02:43:26;18.1;94
29173;DHT22;16223;47.966;-1.616;2022-08-04T02:44:25;18.1;94
29173;DHT22;16223;47.966;-1.616;2022-08-04T02:45:25;18.1;94
29173;DHT22;16223;47.966;-1.616;2022-08-04T02:46:24;18.1;94
29173;DHT22;16223;47.966;-1.616;2022-08-04T02:47:27;18.1;94
29173;DHT22;16223;47.966;-1.616;2022-08-04T02:48:25;18.1;94
29173;DHT22;16223;47.966;-1.616;2022-08-04T02:49:24;18.1;94
29173;DHT22;16223;47.966;-1.616;2022-08-04T02:50:25;18.1;94
29173;DHT22;16223;47.966;-1.616;2022-08-04T02:51:26;18.1;94
29173;DHT22;16223;47.966;-1.616;2022-08-04T02:52:24;18.1;94
29173;DHT22;16223;47.966;-1.616;2022-08-04T02:53:23;18.1;94
29173;DHT22;16223;47.966;-1.616;2022-08-04T02:54:27;18.1;94
29173;DHT22;16223;47.966;-1.616;2022-08-04T02:55:24;18.1;94
29173;DHT22;16223;47.966;-1.616;2022-08-04T02:56:27;18.1;94
29173;DHT22;16223;47.966;-1.616;2022-08-04T02:57:26;18.1;94
29173;DHT22;16223;47.966;-1.616;2022-08-04T02:58:25;18.1;94
29173;DHT22;16223;47.966;-1.616;2022-08-04T02:59:29;18.1;94
29173;DHT22;16223;47.966;-1.616;2022-08-04T03:00:24;18.1;94
29173;DHT22;16223;47.966;-1.616;2022-08-04T03:01:24;18.1;94
29173;DHT22;16223;47.966;-1.616;2022-08-04T03:02:33;18.1;94
29173;DHT22;16223;47.966;-1.616;2022-08-04T03:03:29;18.1;94
29173;DHT22;16223;47.966;-1.616;2022-08-04T03:04:34;18.1;94
29173;DHT22;16223;47.966;-1.616;2022-08-04T03:05:28;18.1;94
29173;DHT22;16223;47.966;-1.616;2022-08-04T03:07:14;18.1;94
29173;DHT22;16223;47.966;-1.616;2022-08-04T03:08:38;18.1;94
29173;DHT22;16223;47.966;-1.616;2022-08-04T03:09:54;18.1;94
29173;DHT22;16223;47.966;-1.616;2022-08-04T03:11:55;18.1;94
29173;DHT22;16223;47.966;-1.616;2022-08-04T03:12:42;18.1;94
29173;DHT22;16223;47.966;-1.616;2022-08-04T03:13:56;18.1;94
29173;DHT22;16223;47.966;-1.616;2022-08-04T03:14:50;18.1;94
29173;DHT22;16223;47.966;-1.616;2022-08-04T03:15:46;18.1;94
29173;DHT22;16223;47.966;-1.616;2022-08-04T03:17:14;18.1;94
29173;DHT22;16223;47.966;-1.616;2022-08-04T03:18:43;18.1;95
29173;DHT22;16223;47.966;-1.616;2022-08-04T03:19:57;18.1;95
29173;DHT22;16223;47.966;-1.616;2022-08-04T03:20:48;18.1;95
29173;DHT22;16223;47.966;-1.616;2022-08-04T03:21:42;18.1;95
29173;DHT22;16223;47.966;-1.616;2022-08-04T03:23:06;18.1;95
29173;DHT22;16223;47.966;-1.616;2022-08-04T03:23:51;18.1;95
29173;DHT22;16223;47.966;-1.616;2022-08-04T03:27:19;18.1;95
29173;DHT22;16223;47.966;-1.616;2022-08-04T03:28:32;18.1;95
29173;DHT22;16223;47.966;-1.616;2022-08-04T03:30:03;18.1;95
29173;DHT22;16223;47.966;-1.616;2022-08-04T03:31:31;18.1;95
29173;DHT22;16223;47.966;-1.616;2022-08-04T03:32:37;18.1;95
29173;DHT22;16223;47.966;-1.616;2022-08-04T03:33:26;18.1;95
29173;DHT22;16223;47.966;-1.616;2022-08-04T03:34:25;18.1;95
29173;DHT22;16223;47.966;-1.616;2022-08-04T03:35:35;18.1;95
29173;DHT22;16223;47.966;-1.616;2022-08-04T03:37:35;18.1;95
29173;DHT22;16223;47.966;-1.616;2022-08-04T03:38:44;18.1;95
29173;DHT22;16223;47.966;-1.616;2022-08-04T03:42:09;18.1;95
29173;DHT22;16223;47.966;-1.616;2022-08-04T03:43:08;18.1;95
29173;DHT22;16223;47.966;-1.616;2022-08-04T03:44:12;18.1;95
29173;DHT22;16223;47.966;-1.616;2022-08-04T03:45:27;18.1;95
29173;DHT22;16223;47.966;-1.616;2022-08-04T03:46:21;18.1;95
29173;DHT22;16223;47.966;-1.616;2022-08-04T03:47:17;18.1;95
29173;DHT22;16223;47.966;-1.616;2022-08-04T03:48:25;18.1;95
29173;DHT22;16223;47.966;-1.616;2022-08-04T03:49:04;18.1;95
29173;DHT22;16223;47.966;-1.616;2022-08-04T03:51:11;18.1;95
29173;DHT22;16223;47.966;-1.616;2022-08-04T03:51:58;18.1;95
29173;DHT22;16223;47.966;-1.616;2022-08-04T03:53:19;18.1;95
29173;DHT22;16223;47.966;-1.616;2022-08-04T03:54:02;18.1;95
29173;DHT22;16223;47.966;-1.616;2022-08-04T03:55:37;18.1;95
29173;DHT22;16223;47.966;-1.616;2022-08-04T03:57:03;18.1;95
29173;DHT22;16223;47.966;-1.616;2022-08-04T03:58:07;18.1;95
29173;DHT22;16223;47.966;-1.616;2022-08-04T03:59:08;18.1;95
29173;DHT22;16223;47.966;-1.616;2022-08-04T04:00:04;18.1;95
29173;DHT22;16223;47.966;-1.616;2022-08-04T04:00:56;18.1;95
29173;DHT22;16223;47.966;-1.616;2022-08-04T04:02:12;18.1;95
29173;DHT22;16223;47.966;-1.616;2022-08-04T04:03:10;18.1;95
29173;DHT22;16223;47.966;-1.616;2022-08-04T04:04:02;18.1;95
29173;DHT22;16223;47.966;-1.616;2022-08-04T04:04:59;18.1;95
29173;DHT22;16223;47.966;-1.616;2022-08-04T04:06:07;18.1;95
29173;DHT22;16223;47.966;-1.616;2022-08-04T04:07:05;18.1;95
29173;DHT22;16223;47.966;-1.616;2022-08-04T04:08:11;18.1;95
29173;DHT22;16223;47.966;-1.616;2022-08-04T04:09:11;18.1;95
29173;DHT22;16223;47.966;-1.616;2022-08-04T04:10:02;18.1;95
29173;DHT22;16223;47.966;-1.616;2022-08-04T04:11:12;18.1;95
29173;DHT22;16223;47.966;-1.616;2022-08-04T04:12:34;17.9;94
29173;DHT22;16223;47.966;-1.616;2022-08-04T04:14:04;17.9;94
29173;DHT22;16223;47.966;-1.616;2022-08-04T04:15:07;17.9;94
29173;DHT22;16223;47.966;-1.616;2022-08-04T04:16:33;17.9;94
29173;DHT22;16223;47.966;-1.616;2022-08-04T04:17:03;17.9;94
29173;DHT22;16223;47.966;-1.616;2022-08-04T04:18:04;17.9;94
29173;DHT22;16223;47.966;-1.616;2022-08-04T04:19:00;17.9;94
29173;DHT22;16223;47.966;-1.616;2022-08-04T04:20:15;17.9;94
29173;DHT22;16223;47.966;-1.616;2022-08-04T04:21:23;17.9;94
29173;DHT22;16223;47.966;-1.616;2022-08-04T04:22:10;17.9;94
29173;DHT22;16223;47.966;-1.616;2022-08-04T04:23:06;17.9;94
29173;DHT22;16223;47.966;-1.616;2022-08-04T04:24:01;17.9;94
29173;DHT22;16223;47.966;-1.616;2022-08-04T04:25:03;17.9;94
29173;DHT22;16223;47.966;-1.616;2022-08-04T04:25:59;17.9;94
29173;DHT22;16223;47.966;-1.616;2022-08-04T04:26:55;17.9;94
29173;DHT22;16223;47.966;-1.616;2022-08-04T04:28:04;17.9;94
29173;DHT22;16223;47.966;-1.616;2022-08-04T04:29:04;17.9;94
29173;DHT22;16223;47.966;-1.616;2022-08-04T04:30:02;17.9;94
29173;DHT22;16223;47.966;-1.616;2022-08-04T04:30:53;17.9;94
29173;DHT22;16223;47.966;-1.616;2022-08-04T04:32:01;17.9;94
29173;DHT22;16223;47.966;-1.616;2022-08-04T04:33:00;17.9;94
29173;DHT22;16223;47.966;-1.616;2022-08-04T04:33:57;17.9;94
29173;DHT22;16223;47.966;-1.616;2022-08-04T04:34:59;17.9;94
29173;DHT22;16223;47.966;-1.616;2022-08-04T04:35:57;17.9;94
29173;DHT22;16223;47.966;-1.616;2022-08-04T04:36:56;17.9;94
29173;DHT22;16223;47.966;-1.616;2022-08-04T04:38:03;17.9;94
29173;DHT22;16223;47.966;-1.616;2022-08-04T04:39:06;17.9;94
29173;DHT22;16223;47.966;-1.616;2022-08-04T04:40:02;17.9;94
29173;DHT22;16223;47.966;-1.616;2022-08-04T04:40:59;17.9;94
29173;DHT22;16223;47.966;-1.616;2022-08-04T04:42:02;17.9;94
29173;DHT22;16223;47.966;-1.616;2022-08-04T04:43:04;17.9;94
29173;DHT22;16223;47.966;-1.616;2022-08-04T04:46:43;17.9;94
29173;DHT22;16223;47.966;-1.616;2022-08-04T04:47:52;17.9;94
29173;DHT22;16223;47.966;-1.616;2022-08-04T04:48:46;17.9;94
29173;DHT22;16223;47.966;-1.616;2022-08-04T04:49:45;17.9;94
29173;DHT22;16223;47.966;-1.616;2022-08-04T04:50:51;17.9;94
29173;DHT22;16223;47.966;-1.616;2022-08-04T04:51:46;17.9;94
29173;DHT22;16223;47.966;-1.616;2022-08-04T04:52:46;17.9;94
29173;DHT22;16223;47.966;-1.616;2022-08-04T04:53:52;17.9;94
29173;DHT22;16223;47.966;-1.616;2022-08-04T04:54:43;17.9;94
29173;DHT22;16223;47.966;-1.616;2022-08-04T04:55:44;17.9;94
29173;DHT22;16223;47.966;-1.616;2022-08-04T04:56:43;17.9;94
29173;DHT22;16223;47.966;-1.616;2022-08-04T04:57:39;17.9;94
29173;DHT22;16223;47.966;-1.616;2022-08-04T04:58:40;17.9;94
29173;DHT22;16223;47.966;-1.616;2022-08-04T04:59:43;17.9;94
29173;DHT22;16223;47.966;-1.616;2022-08-04T05:00:52;17.9;94
29173;DHT22;16223;47.966;-1.616;2022-08-04T05:01:58;17.9;94
29173;DHT22;16223;47.966;-1.616;2022-08-04T05:02:53;17.9;94
29173;DHT22;16223;47.966;-1.616;2022-08-04T05:03:53;17.9;94
29173;DHT22;16223;47.966;-1.616;2022-08-04T05:05:00;17.9;94
29173;DHT22;16223;47.966;-1.616;2022-08-04T05:05:56;17.9;94
29173;DHT22;16223;47.966;-1.616;2022-08-04T05:06:51;17.9;94
29173;DHT22;16223;47.966;-1.616;2022-08-04T05:07:54;17.9;94
29173;DHT22;16223;47.966;-1.616;2022-08-04T05:08:59;17.9;94
29173;DHT22;16223;47.966;-1.616;2022-08-04T05:09:51;17.9;94
29173;DHT22;16223;47.966;-1.616;2022-08-04T05:10:50;17.6;91
29173;DHT22;16223;47.966;-1.616;2022-08-04T05:12:08;17.6;91
29173;DHT22;16223;47.966;-1.616;2022-08-04T05:12:59;17.6;91
29173;DHT22;16223;47.966;-1.616;2022-08-04T05:13:44;17.6;91
29173;DHT22;16223;47.966;-1.616;2022-08-04T05:14:43;17.6;91
29173;DHT22;16223;47.966;-1.616;2022-08-04T05:15:43;17.6;91
29173;DHT22;16223;47.966;-1.616;2022-08-04T05:16:43;17.6;91
29173;DHT22;16223;47.966;-1.616;2022-08-04T05:17:42;17.6;91
29173;DHT22;16223;47.966;-1.616;2022-08-04T05:18:41;17.6;91
29173;DHT22;16223;47.966;-1.616;2022-08-04T05:19:47;17.6;91
29173;DHT22;16223;47.966;-1.616;2022-08-04T05:20:41;17.6;91
29173;DHT22;16223;47.966;-1.616;2022-08-04T05:21:44;17.6;91
29173;DHT22;16223;47.966;-1.616;2022-08-04T05:22:42;17.6;91
29173;DHT22;16223;47.966;-1.616;2022-08-04T05:23:46;17.6;91
29173;DHT22;16223;47.966;-1.616;2022-08-04T05:24:43;17.6;91
29173;DHT22;16223;47.966;-1.616;2022-08-04T05:25:42;17.6;91
29173;DHT22;16223;47.966;-1.616;2022-08-04T05:26:43;17.6;91
29173;DHT22;16223;47.966;-1.616;2022-08-04T05:27:47;17.6;91
29173;DHT22;16223;47.966;-1.616;2022-08-04T05:28:42;17.6;91
29173;DHT22;16223;47.966;-1.616;2022-08-04T05:29:44;17.6;91
29173;DHT22;16223;47.966;-1.616;2022-08-04T05:30:55;17.6;91
29173;DHT22;16223;47.966;-1.616;2022-08-04T05:31:43;17.6;91
29173;DHT22;16223;47.966;-1.616;2022-08-04T05:32:44;17.6;91
29173;DHT22;16223;47.966;-1.616;2022-08-04T05:33:43;17.6;91
29173;DHT22;16223;47.966;-1.616;2022-08-04T05:34:43;17.6;91
29173;DHT22;16223;47.966;-1.616;2022-08-04T05:35:45;17.6;91
29173;DHT22;16223;47.966;-1.616;2022-08-04T05:36:42;17.6;91
29173;DHT22;16223;47.966;-1.616;2022-08-04T05:37:41;17.6;91
29173;DHT22;16223;47.966;-1.616;2022-08-04T05:38:40;17.6;91
29173;DHT22;16223;47.966;-1.616;2022-08-04T05:39:43;17.6;91
29173;DHT22;16223;47.966;-1.616;2022-08-04T05:40:40;17.6;91
29173;DHT22;16223;47.966;-1.616;2022-08-04T05:41:39;17.6;91
29173;DHT22;16223;47.966;-1.616;2022-08-04T05:42:41;17.6;91
29173;DHT22;16223;47.966;-1.616;2022-08-04T05:43:42;17.6;91
29173;DHT22;16223;47.966;-1.616;2022-08-04T05:44:40;17.6;91
29173;DHT22;16223;47.966;-1.616;2022-08-04T05:45:39;17.6;91
29173;DHT22;16223;47.966;-1.616;2022-08-04T05:46:39;17.6;91
29173;DHT22;16223;47.966;-1.616;2022-08-04T05:47:39;17.6;91
29173;DHT22;16223;47.966;-1.616;2022-08-04T05:48:40;17.6;91
29173;DHT22;16223;47.966;-1.616;2022-08-04T05:49:40;17.6;91
29173;DHT22;16223;47.966;-1.616;2022-08-04T05:50:40;17.6;91
29173;DHT22;16223;47.966;-1.616;2022-08-04T05:51:39;17.6;91
29173;DHT22;16223;47.966;-1.616;2022-08-04T05:52:40;17.6;91
29173;DHT22;16223;47.966;-1.616;2022-08-04T05:53:40;17.6;91
29173;DHT22;16223;47.966;-1.616;2022-08-04T05:54:40;17.6;91
29173;DHT22;16223;47.966;-1.616;2022-08-04T05:55:39;17.6;91
29173;DHT22;16223;47.966;-1.616;2022-08-04T05:56:39;17.6;91
29173;DHT22;16223;47.966;-1.616;2022-08-04T05:57:41;17.6;91
29173;DHT22;16223;47.966;-1.616;2022-08-04T05:58:40;17.6;91
29173;DHT22;16223;47.966;-1.616;2022-08-04T05:59:40;17.6;91
29173;DHT22;16223;47.966;-1.616;2022-08-04T06:00:40;17.6;91
29173;DHT22;16223;47.966;-1.616;2022-08-04T06:01:40;17.6;91
29173;DHT22;16223;47.966;-1.616;2022-08-04T06:02:40;17.6;91
29173;DHT22;16223;47.966;-1.616;2022-08-04T06:03:40;17.6;91
29173;DHT22;16223;47.966;-1.616;2022-08-04T06:04:40;17.8;90
29173;DHT22;16223;47.966;-1.616;2022-08-04T06:05:41;17.8;90
29173;DHT22;16223;47.966;-1.616;2022-08-04T06:06:40;17.8;90
29173;DHT22;16223;47.966;-1.616;2022-08-04T06:07:39;17.8;90
29173;DHT22;16223;47.966;-1.616;2022-08-04T06:08:40;17.8;90
29173;DHT22;16223;47.966;-1.616;2022-08-04T06:09:39;17.8;90
29173;DHT22;16223;47.966;-1.616;2022-08-04T06:10:41;17.8;90
29173;DHT22;16223;47.966;-1.616;2022-08-04T06:11:40;17.8;90
29173;DHT22;16223;47.966;-1.616;2022-08-04T06:12:44;17.8;90
29173;DHT22;16223;47.966;-1.616;2022-08-04T06:13:46;17.8;90
29173;DHT22;16223;47.966;-1.616;2022-08-04T06:14:42;17.8;90
29173;DHT22;16223;47.966;-1.616;2022-08-04T06:15:42;17.8;90
29173;DHT22;16223;47.966;-1.616;2022-08-04T06:16:42;17.8;90
29173;DHT22;16223;47.966;-1.616;2022-08-04T06:17:41;17.8;90
29173;DHT22;16223;47.966;-1.616;2022-08-04T06:18:40;17.8;90
29173;DHT22;16223;47.966;-1.616;2022-08-04T06:19:41;17.8;90
29173;DHT22;16223;47.966;-1.616;2022-08-04T06:20:41;17.8;90
29173;DHT22;16223;47.966;-1.616;2022-08-04T06:21:42;17.8;90
29173;DHT22;16223;47.966;-1.616;2022-08-04T06:22:43;17.8;90
29173;DHT22;16223;47.966;-1.616;2022-08-04T06:23:41;18.1;90
29173;DHT22;16223;47.966;-1.616;2022-08-04T06:24:40;18.1;90
29173;DHT22;16223;47.966;-1.616;2022-08-04T06:25:50;18.1;90
29173;DHT22;16223;47.966;-1.616;2022-08-04T06:26:51;18.1;90
29173;DHT22;16223;47.966;-1.616;2022-08-04T06:27:40;18.1;90
29173;DHT22;16223;47.966;-1.616;2022-08-04T06:28:40;18.1;90
29173;DHT22;16223;47.966;-1.616;2022-08-04T06:29:39;18.1;90
29173;DHT22;16223;47.966;-1.616;2022-08-04T06:30:40;18.1;90
29173;DHT22;16223;47.966;-1.616;2022-08-04T06:31:40;18.1;90
29173;DHT22;16223;47.966;-1.616;2022-08-04T06:32:40;18.1;90
29173;DHT22;16223;47.966;-1.616;2022-08-04T06:33:39;18.1;90
29173;DHT22;16223;47.966;-1.616;2022-08-04T06:34:39;18.1;90
29173;DHT22;16223;47.966;-1.616;2022-08-04T06:35:42;18.1;90
29173;DHT22;16223;47.966;-1.616;2022-08-04T06:36:41;18.1;90
29173;DHT22;16223;47.966;-1.616;2022-08-04T06:37:39;18.1;90
29173;DHT22;16223;47.966;-1.616;2022-08-04T06:38:39;18.1;90
29173;DHT22;16223;47.966;-1.616;2022-08-04T06:39:39;18.1;90
29173;DHT22;16223;47.966;-1.616;2022-08-04T06:40:39;18.1;90
29173;DHT22;16223;47.966;-1.616;2022-08-04T06:41:40;18.1;90
29173;DHT22;16223;47.966;-1.616;2022-08-04T06:42:39;18.1;90
29173;DHT22;16223;47.966;-1.616;2022-08-04T06:43:40;18.1;90
29173;DHT22;16223;47.966;-1.616;2022-08-04T06:44:40;18.1;90
29173;DHT22;16223;47.966;-1.616;2022-08-04T06:45:40;18.1;90
29173;DHT22;16223;47.966;-1.616;2022-08-04T06:46:41;18.1;90
29173;DHT22;16223;47.966;-1.616;2022-08-04T06:47:41;18.1;90
29173;DHT22;16223;47.966;-1.616;2022-08-04T06:48:40;18.1;90
29173;DHT22;16223;47.966;-1.616;2022-08-04T06:49:40;18.1;90
29173;DHT22;16223;47.966;-1.616;2022-08-04T06:50:40;18.1;90
29173;DHT22;16223;47.966;-1.616;2022-08-04T06:51:40;18.1;90
29173;DHT22;16223;47.966;-1.616;2022-08-04T06:52:40;18.1;90
29173;DHT22;16223;47.966;-1.616;2022-08-04T06:53:39;18.1;90
29173;DHT22;16223;47.966;-1.616;2022-08-04T06:54:39;18.1;90
29173;DHT22;16223;47.966;-1.616;2022-08-04T06:55:39;18.1;90
29173;DHT22;16223;47.966;-1.616;2022-08-04T06:56:40;18.1;90
29173;DHT22;16223;47.966;-1.616;2022-08-04T06:57:39;18.1;90
29173;DHT22;16223;47.966;-1.616;2022-08-04T06:58:41;18.1;90
29173;DHT22;16223;47.966;-1.616;2022-08-04T06:59:40;18.4;89